No particular awareness of the weather is required.    There are no Weather-warnings


Meteo18 Weather Cam more information Meteo18 Weather Cam


Thunder radar more information blitzortung!


Rain radar more information rain snow radar


Visit our other weather sites:

Template documentation
and downloads

And another site



Weather Underground History page Text

Daily Summary for February 17, 2018 Units:  English    Metric   Both
« Previous Day
Next Day »
Daily Weekly Monthly Yearly Custom
  High: Low: Average:
Temperature: TemperatureC °F 2.8 °F 5.2 °F
Dew Point: DewpointC °F 2.1 °F 4.3 °F
Humidity: Humidity % 87 % 94 %
Wind Speed: WindSpeedKMH mph 0.0 mph 4.2 mph
Wind Gust: WindSpeedGustKMH mph - -
Wind:- - SSW
Pressure: PressurehPa in 1015.1 in -
Precipitation: 19.0 in    
Historical Graphs
 
 
Tabular Data for February 17, 2018
Time Temperature Dew Point Pressure Wind Wind Speed Wind Gust Humidity Rainfall Rate (Hourly)
TemperatureC °F DewpointC °F PressurehPa in Calm     Humidity % HourlyPrecipMM in
00:01 6.4 °F 4.9 °F 1019.2 in NE 4.7 mph 6.4 mph 90 % 0.3 in
00:07 6.3 °F 4.8 °F 1019.2 in North 3.2 mph 6.4 mph 90 % 0.3 in
00:13 6.3 °F 4.9 °F 1019.2 in NNE 4.7 mph 8.0 mph 91 % 0.5 in
00:19 6.3 °F 4.9 °F 1019.2 in ENE 3.2 mph 9.7 mph 91 % 0.5 in
00:25 6.2 °F 4.8 °F 1019.2 in NE 4.7 mph 6.4 mph 91 % 0.5 in
00:31 6.2 °F 4.8 °F 1019.2 in NE 3.2 mph 4.8 mph 91 % 0.5 in
00:37 6.1 °F 4.9 °F 1019.2 in Calm   3.2 mph 92 % 0.8 in
00:43 6.1 °F 4.9 °F 1019.5 in Calm   1.6 mph 92 % 1.3 in
00:49 6.0 °F 5.0 °F 1019.5 in NE 3.2 mph 4.8 mph 93 % 1.5 in
00:55 5.9 °F 4.9 °F 1019.2 in NE 9.7 mph 9.7 mph 93 % 2.0 in
01:01 5.8 °F 4.8 °F 1018.8 in NNE 11.1 mph 14.5 mph 93 % 2.3 in
01:07 5.7 °F 4.8 °F 1018.5 in NNE 11.1 mph 14.5 mph 94 % 2.5 in
01:13 5.6 °F 4.7 °F 1018.5 in NNE 6.4 mph 11.3 mph 94 % 2.8 in
01:19 5.6 °F 4.7 °F 1018.5 in NE 3.2 mph 11.3 mph 94 % 3.0 in
01:25 5.5 °F 4.8 °F 1018.5 in NNE 7.9 mph 8.0 mph 95 % 3.3 in
01:31 5.4 °F 4.7 °F 1018.5 in NE 6.4 mph 11.3 mph 95 % 3.3 in
01:37 5.4 °F 4.7 °F 1018.2 in NE 6.4 mph 11.3 mph 95 % 3.8 in
01:43 5.4 °F 4.7 °F 1018.2 in NE 3.2 mph 11.3 mph 95 % 4.3 in
01:49 5.3 °F 4.6 °F 1018.5 in NNW 4.7 mph 9.7 mph 95 % 4.8 in
01:55 5.3 °F 4.6 °F 1018.2 in NE 6.4 mph 19.3 mph 95 % 5.1 in
02:01 5.3 °F 4.6 °F 1017.8 in North 13.0 mph 16.1 mph 95 % 5.1 in
02:07 5.3 °F 4.6 °F 1017.8 in NNE 9.7 mph 14.5 mph 95 % 5.3 in
02:13 5.3 °F 4.7 °F 1017.8 in North 7.9 mph 11.3 mph 96 % 5.6 in
02:19 5.3 °F 4.7 °F 1017.8 in NNE 16.3 mph 19.3 mph 96 % 5.8 in
02:25 5.3 °F 4.7 °F 1017.8 in NNE 9.7 mph 19.3 mph 96 % 6.1 in
02:31 5.3 °F 4.7 °F 1017.8 in NNE 9.7 mph 20.9 mph 96 % 6.1 in
02:37 5.3 °F 4.7 °F 1017.5 in NE 13.0 mph 17.7 mph 96 % 5.8 in
02:43 5.3 °F 4.7 °F 1017.2 in NNE 6.4 mph 19.3 mph 96 % 5.1 in
02:49 5.3 °F 4.7 °F 1017.2 in NE 9.7 mph 16.1 mph 96 % 4.3 in
02:55 5.3 °F 4.7 °F 1017.2 in NE 11.1 mph 16.1 mph 96 % 3.6 in
03:01 5.3 °F 4.7 °F 1017.5 in ENE 9.7 mph 14.5 mph 96 % 3.3 in
03:07 5.3 °F 4.7 °F 1017.2 in NE 9.7 mph 16.1 mph 96 % 2.5 in
03:13 5.3 °F 4.7 °F 1017.2 in NNE 11.1 mph 14.5 mph 96 % 2.5 in
03:19 5.3 °F 4.7 °F 1017.2 in NNE 7.9 mph 16.1 mph 96 % 2.3 in
03:25 5.3 °F 4.7 °F 1016.8 in NE 13.0 mph 17.7 mph 96 % 1.8 in
03:31 5.3 °F 4.7 °F 1016.8 in NNW 6.4 mph 14.5 mph 96 % 1.5 in
03:37 5.3 °F 4.7 °F 1016.8 in NE 6.4 mph 17.7 mph 96 % 1.3 in
03:43 5.3 °F 4.7 °F 1016.5 in NNW 4.7 mph 6.4 mph 96 % 1.0 in
03:49 5.3 °F 4.7 °F 1016.5 in NE 3.2 mph 8.0 mph 96 % 1.0 in
03:55 5.3 °F 4.7 °F 1016.1 in NNE 7.9 mph 9.7 mph 96 % 1.0 in
04:01 5.3 °F 4.7 °F 1016.1 in NE 9.7 mph 11.3 mph 96 % 0.8 in
04:07 5.3 °F 4.7 °F 1016.1 in NNE 4.7 mph 14.5 mph 96 % 1.0 in
04:13 5.2 °F 4.6 °F 1016.1 in ENE 7.9 mph 11.3 mph 96 % 0.5 in
04:19 5.2 °F 4.6 °F 1015.8 in NE 4.7 mph 12.9 mph 96 % 0.5 in
04:25 5.2 °F 4.6 °F 1015.8 in NNE 4.7 mph 11.3 mph 96 % 0.5 in
04:31 5.2 °F 4.6 °F 1015.5 in ENE 3.2 mph 8.0 mph 96 % 0.5 in
04:37 5.2 °F 4.8 °F 1015.5 in ENE 13.0 mph 13.0 mph 97 % 0.5 in
04:43 5.1 °F 4.7 °F 1015.1 in NE 7.9 mph 12.9 mph 97 % 0.5 in
04:49 5.1 °F 4.7 °F 1015.5 in NE 7.9 mph 14.5 mph 97 % 0.3 in
04:55 5.1 °F 4.7 °F 1015.5 in NE 11.1 mph 17.7 mph 97 % 0.3 in
05:01 5.1 °F 4.7 °F 1015.5 in NNW 4.7 mph 12.9 mph 97 % 0.3 in
05:07 5.1 °F 4.7 °F 1015.5 in ENE 1.4 mph 4.8 mph 97 % 0.0 in
05:13 5.1 °F 4.7 °F 1015.5 in NE 4.7 mph 12.9 mph 97 % 0.0 in
05:19 5.1 °F 4.7 °F 1015.5 in North 4.7 mph 6.4 mph 97 % 0.0 in
05:25 5.1 °F 4.7 °F 1015.1 in NE 4.7 mph 12.9 mph 97 % 0.0 in
05:31 5.1 °F 4.7 °F 1015.5 in NNW 1.4 mph 3.2 mph 97 % 0.0 in
05:37 5.2 °F 4.8 °F 1015.5 in NNW 1.4 mph 4.8 mph 97 % 0.3 in
05:43 5.2 °F 4.8 °F 1015.5 in Calm   3.2 mph 97 % 0.3 in
05:49 5.2 °F 4.8 °F 1015.5 in NW 3.2 mph 6.4 mph 97 % 0.3 in
05:55 5.3 °F 4.9 °F 1015.5 in WNW 4.7 mph 8.0 mph 97 % 0.3 in
06:01 5.2 °F 4.8 °F 1015.8 in NNE 7.9 mph 11.3 mph 97 % 0.5 in
06:07 5.2 °F 4.8 °F 1015.8 in NW 1.4 mph 8.0 mph 97 % 0.5 in
06:13 5.2 °F 4.8 °F 1016.1 in NNW 4.7 mph 6.4 mph 97 % 0.8 in
06:19 5.2 °F 4.8 °F 1016.1 in Calm   4.8 mph 97 % 0.8 in
06:25 5.3 °F 4.9 °F 1016.1 in NNW 6.4 mph 8.0 mph 97 % 1.3 in
06:31 5.3 °F 4.9 °F 1016.1 in NNW 3.2 mph 9.7 mph 97 % 1.5 in
06:37 5.3 °F 4.9 °F 1016.1 in NW 3.2 mph 6.4 mph 97 % 1.5 in
06:43 5.3 °F 4.9 °F 1016.1 in NW 3.2 mph 8.0 mph 97 % 1.5 in
06:55 5.2 °F 4.8 °F 1016.1 in NNW 3.2 mph 4.8 mph 97 % 2.3 in
07:01 5.2 °F 4.8 °F 1016.1 in NNW 4.7 mph 8.0 mph 97 % 2.3 in
07:07 5.1 °F 4.7 °F 1016.1 in NNW 3.2 mph 6.4 mph 97 % 2.3 in
07:13 5.1 °F 4.7 °F 1016.1 in NNW 7.9 mph 9.7 mph 97 % 2.0 in
07:19 5.0 °F 4.6 °F 1016.1 in NNW 4.7 mph 6.4 mph 97 % 2.3 in
07:25 4.9 °F 4.5 °F 1016.1 in NNW 11.1 mph 12.9 mph 97 % 1.8 in
07:31 4.8 °F 4.2 °F 1016.1 in NNW 7.9 mph 16.1 mph 96 % 1.8 in
07:37 4.7 °F 4.1 °F 1016.5 in NNW 9.7 mph 11.3 mph 96 % 1.5 in
07:43 4.6 °F 4.0 °F 1016.5 in North 3.2 mph 8.0 mph 96 % 1.5 in
07:50 4.6 °F 4.0 °F 1016.5 in Calm   6.4 mph 96 % 1.3 in
07:56 4.4 °F 3.8 °F 1016.5 in North 4.7 mph 9.7 mph 96 % 1.0 in
08:02 4.4 °F 3.8 °F 1016.8 in NW 1.4 mph 6.4 mph 96 % 0.8 in
08:08 4.4 °F 3.8 °F 1016.8 in NNW 11.1 mph 12.9 mph 96 % 0.5 in
08:14 4.4 °F 3.8 °F 1016.8 in NW 7.9 mph 11.3 mph 96 % 0.5 in
08:20 4.3 °F 3.7 °F 1016.8 in NNW 9.7 mph 11.3 mph 96 % 0.5 in
08:26 4.3 °F 3.7 °F 1016.8 in NE 4.7 mph 11.3 mph 96 % 0.5 in
08:32 4.3 °F 3.7 °F 1016.8 in NNW 6.4 mph 8.0 mph 96 % 0.5 in
08:38 4.3 °F 3.7 °F 1017.2 in North 3.2 mph 4.8 mph 96 % 0.5 in
08:44 4.3 °F 3.7 °F 1017.2 in North 3.2 mph 6.4 mph 96 % 0.5 in
08:50 4.3 °F 3.9 °F 1017.2 in North 4.7 mph 11.3 mph 97 % 0.5 in
08:56 4.3 °F 3.9 °F 1017.2 in NNE 3.2 mph 6.4 mph 97 % 0.5 in
09:02 4.4 °F 4.0 °F 1017.2 in NW 1.4 mph 8.0 mph 97 % 0.5 in
09:08 4.4 °F 4.0 °F 1017.5 in NW 3.2 mph 4.8 mph 97 % 0.5 in
09:14 4.4 °F 4.0 °F 1017.2 in NNE 1.4 mph 8.0 mph 97 % 0.8 in
09:20 4.5 °F 4.1 °F 1017.2 in North 4.7 mph 8.0 mph 97 % 0.8 in
09:26 4.6 °F 4.2 °F 1017.5 in NNE 4.7 mph 8.0 mph 97 % 0.8 in
09:32 4.7 °F 4.3 °F 1017.5 in NNW 4.7 mph 4.8 mph 97 % 0.8 in
09:38 4.7 °F 4.3 °F 1017.5 in NNW 1.4 mph 4.8 mph 97 % 0.8 in
09:44 4.7 °F 4.3 °F 1017.8 in NNW 1.4 mph 4.8 mph 97 % 0.8 in
09:50 4.8 °F 4.4 °F 1017.8 in NNW 1.4 mph 4.8 mph 97 % 0.8 in
09:56 4.8 °F 4.4 °F 1017.8 in NNW 1.4 mph 3.2 mph 97 % 0.8 in
10:02 4.9 °F 4.5 °F 1017.8 in NW 3.2 mph 4.8 mph 97 % 1.0 in
10:08 4.9 °F 4.5 °F 1017.8 in NNW 1.4 mph 4.8 mph 97 % 0.8 in
10:14 4.9 °F 4.5 °F 1017.8 in Calm   6.4 mph 97 % 0.8 in
10:20 5.1 °F 4.7 °F 1017.8 in North 1.4 mph 3.2 mph 97 % 0.8 in
10:26 5.1 °F 4.7 °F 1018.2 in Calm   4.8 mph 97 % 0.8 in
10:32 5.2 °F 4.8 °F 1017.8 in North 4.7 mph 6.4 mph 97 % 0.5 in
10:38 5.2 °F 4.6 °F 1018.2 in NNE 6.4 mph 6.4 mph 96 % 0.5 in
10:44 5.1 °F 4.5 °F 1018.2 in NW 3.2 mph 8.0 mph 96 % 0.5 in
10:50 5.2 °F 4.6 °F 1018.5 in North 3.2 mph 4.8 mph 96 % 0.5 in
10:56 5.2 °F 4.6 °F 1018.5 in NW 1.4 mph 4.8 mph 96 % 0.5 in
11:02 5.2 °F 4.6 °F 1018.5 in NNW 7.9 mph 11.3 mph 96 % 0.5 in
11:13 5.2 °F 4.6 °F 1018.8 in NNW 4.7 mph 8.0 mph 96 % 0.5 in
11:20 5.2 °F 4.6 °F 1018.8 in North 7.9 mph 9.7 mph 96 % 0.5 in
11:26 5.3 °F 4.7 °F 1019.2 in North 3.2 mph 4.8 mph 96 % 0.5 in
11:32 5.3 °F 4.7 °F 1019.2 in NNW 7.9 mph 9.7 mph 96 % 0.8 in
11:38 5.3 °F 4.6 °F 1019.5 in NNW 6.4 mph 9.7 mph 95 % 0.8 in
11:44 5.3 °F 4.6 °F 1019.5 in North 4.7 mph 11.3 mph 95 % 1.0 in
11:50 5.2 °F 4.5 °F 1019.5 in North 6.4 mph 9.7 mph 95 % 1.0 in
11:56 5.3 °F 4.6 °F 1019.5 in North 7.9 mph 9.7 mph 95 % 1.0 in
12:02 5.3 °F 4.6 °F 1019.5 in NNW 9.7 mph 11.3 mph 95 % 1.0 in
12:08 5.3 °F 4.6 °F 1019.9 in NW 3.2 mph 9.7 mph 95 % 1.0 in
12:14 5.2 °F 4.5 °F 1019.9 in NW 4.7 mph 12.9 mph 95 % 1.0 in
12:20 5.3 °F 4.6 °F 1019.9 in NNW 6.4 mph 11.3 mph 95 % 1.0 in
12:26 5.3 °F 4.6 °F 1020.2 in NNW 6.4 mph 9.7 mph 95 % 1.3 in
12:32 5.3 °F 4.6 °F 1020.2 in NNW 4.7 mph 11.3 mph 95 % 1.0 in
12:38 5.3 °F 4.4 °F 1020.2 in NNW 11.1 mph 16.1 mph 94 % 1.0 in
12:44 5.3 °F 4.4 °F 1020.5 in NNW 7.9 mph 14.5 mph 94 % 0.8 in
12:50 5.3 °F 4.3 °F 1020.5 in NE 7.9 mph 14.5 mph 93 % 0.5 in
12:56 5.3 °F 4.3 °F 1020.5 in NNE 4.7 mph 11.3 mph 93 % 0.8 in
13:02 5.4 °F 4.4 °F 1020.5 in North 3.2 mph 14.5 mph 93 % 0.5 in
13:08 5.6 °F 4.6 °F 1020.5 in North 9.7 mph 11.3 mph 93 % 0.5 in
13:14 5.4 °F 4.2 °F 1020.5 in NNW 7.9 mph 12.9 mph 92 % 0.5 in
13:20 5.4 °F 4.2 °F 1020.5 in NNE 7.9 mph 16.1 mph 92 % 0.5 in
13:26 5.4 °F 4.2 °F 1020.5 in NE 4.7 mph 12.9 mph 92 % 0.3 in
13:32 5.4 °F 4.2 °F 1020.9 in North 7.9 mph 14.5 mph 92 % 0.5 in
13:38 5.3 °F 4.0 °F 1020.9 in North 7.9 mph 17.7 mph 91 % 0.5 in
13:44 5.4 °F 4.2 °F 1020.9 in NNW 9.7 mph 16.1 mph 92 % 0.5 in
13:50 5.5 °F 4.3 °F 1020.9 in NNW 11.1 mph 19.3 mph 92 % 0.5 in
13:56 5.5 °F 4.3 °F 1020.9 in NE 17.7 mph 17.7 mph 92 % 0.3 in
14:02 5.6 °F 4.4 °F 1020.9 in NW 7.9 mph 12.9 mph 92 % 0.3 in
14:08 5.7 °F 4.5 °F 1021.2 in NNE 9.7 mph 9.7 mph 92 % 0.3 in
14:14 5.8 °F 4.6 °F 1021.2 in NNW 13.0 mph 14.5 mph 92 % 0.3 in
14:20 5.7 °F 4.3 °F 1021.2 in North 13.0 mph 20.9 mph 91 % 0.3 in
14:26 5.7 °F 4.3 °F 1021.2 in NE 4.7 mph 16.1 mph 91 % 0.3 in
14:32 5.8 °F 4.4 °F 1021.2 in NNE 9.7 mph 14.5 mph 91 % 0.0 in
14:38 5.8 °F 4.4 °F 1021.2 in NNE 1.4 mph 9.7 mph 91 % 0.0 in
14:44 6.0 °F 4.6 °F 1021.2 in NW 3.2 mph 11.3 mph 91 % 0.0 in
14:50 6.1 °F 4.7 °F 1021.6 in NNE 4.7 mph 9.7 mph 91 % 0.0 in
14:56 6.0 °F 4.5 °F 1021.6 in NNW 4.7 mph 9.7 mph 90 % 0.0 in
15:02 6.1 °F 4.7 °F 1021.2 in NNW 1.4 mph 9.7 mph 91 % 0.0 in
15:08 6.1 °F 4.6 °F 1021.6 in NNW 3.2 mph 8.0 mph 90 % 0.0 in
15:14 6.3 °F 4.9 °F 1021.6 in Calm   6.4 mph 91 % 0.0 in
15:20 6.4 °F 4.9 °F 1021.6 in NE 1.4 mph 8.0 mph 90 % 0.0 in
15:26 6.5 °F 4.8 °F 1021.6 in NE 4.7 mph 9.7 mph 89 % 0.0 in
15:32 6.6 °F 4.8 °F 1021.9 in NE 7.9 mph 12.9 mph 88 % 0.0 in
15:38 6.6 °F 4.6 °F 1021.9 in North 9.7 mph 11.3 mph 87 % 0.0 in
15:44 6.6 °F 4.6 °F 1021.9 in NW 3.2 mph 12.9 mph 87 % 0.0 in
15:50 6.7 °F 4.9 °F 1021.9 in NE 3.2 mph 3.2 mph 88 % 0.0 in
15:56 6.7 °F 4.9 °F 1021.9 in NW 6.4 mph 11.3 mph 88 % 0.0 in
16:02 6.7 °F 4.7 °F 1022.2 in NNW 3.2 mph 9.7 mph 87 % 0.0 in
16:08 6.6 °F 4.8 °F 1022.2 in NW 1.4 mph 6.4 mph 88 % 0.0 in
16:14 6.5 °F 4.5 °F 1022.2 in West 3.2 mph 11.3 mph 87 % 0.0 in
16:20 6.4 °F 4.6 °F 1022.2 in WNW 3.2 mph 9.7 mph 88 % 0.0 in
16:26 6.4 °F 4.7 °F 1022.2 in NNW 4.7 mph 4.8 mph 89 % 0.0 in
16:32 6.4 °F 4.6 °F 1022.2 in NNE 4.7 mph 9.7 mph 88 % 0.0 in
16:38 6.4 °F 4.7 °F 1022.2 in North 3.2 mph 6.4 mph 89 % 0.0 in
16:45 6.4 °F 4.7 °F 1022.2 in NW 1.4 mph 3.2 mph 89 % 0.0 in
16:51 6.4 °F 4.7 °F 1022.6 in NNW 4.7 mph 9.7 mph 89 % 0.0 in
16:57 6.4 °F 4.7 °F 1022.6 in NNW 4.7 mph 6.4 mph 89 % 0.0 in
17:03 6.4 °F 4.9 °F 1022.6 in NW 3.2 mph 4.8 mph 90 % 0.0 in
17:09 6.4 °F 4.9 °F 1022.6 in WNW 3.2 mph 6.4 mph 90 % 0.0 in
17:15 6.3 °F 4.6 °F 1022.9 in NNW 1.4 mph 8.0 mph 89 % 0.0 in
17:21 6.3 °F 4.6 °F 1022.9 in NNW 1.4 mph 1.6 mph 89 % 0.0 in
17:27 6.3 °F 4.6 °F 1022.9 in NNW 3.2 mph 4.8 mph 89 % 0.0 in
17:33 6.2 °F 4.5 °F 1022.9 in NW 3.2 mph 3.2 mph 89 % 0.0 in
17:39 6.2 °F 4.5 °F 1023.2 in NNW 1.4 mph 4.8 mph 89 % 0.0 in
17:45 6.2 °F 4.5 °F 1023.2 in NW 3.2 mph 4.8 mph 89 % 0.0 in
17:51 6.2 °F 4.7 °F 1023.2 in NW 1.4 mph 3.2 mph 90 % 0.0 in
17:57 6.2 °F 4.7 °F 1023.2 in NNW 6.4 mph 6.4 mph 90 % 0.0 in
18:03 6.2 °F 4.7 °F 1023.2 in NW 1.4 mph 1.6 mph 90 % 0.0 in
18:09 6.1 °F 4.6 °F 1023.2 in Calm   1.6 mph 90 % 0.0 in
18:15 6.1 °F 4.7 °F 1023.2 in NNW 1.4 mph 1.6 mph 91 % 0.0 in
18:21 6.1 °F 4.7 °F 1023.6 in Calm   1.6 mph 91 % 0.0 in
18:27 6.1 °F 4.7 °F 1023.6 in NW 3.2 mph 3.2 mph 91 % 0.0 in
18:33 6.1 °F 4.7 °F 1023.6 in Calm   3.2 mph 91 % 0.0 in
18:39 5.9 °F 4.5 °F 1023.9 in WNW 1.4 mph 3.2 mph 91 % 0.0 in
18:45 5.9 °F 4.5 °F 1023.9 in WNW 1.4 mph 4.8 mph 91 % 0.0 in
18:51 5.9 °F 4.7 °F 1023.9 in West 3.2 mph 4.8 mph 92 % 0.0 in
18:57 5.9 °F 4.5 °F 1023.9 in WNW 1.4 mph 6.4 mph 91 % 0.0 in
19:09 5.8 °F 4.4 °F 1024.3 in NW 1.4 mph 3.2 mph 91 % 0.0 in
19:15 5.8 °F 4.4 °F 1024.3 in NW 1.4 mph 4.8 mph 91 % 0.0 in
19:21 5.8 °F 4.4 °F 1024.3 in Calm   3.2 mph 91 % 0.0 in
19:27 5.8 °F 4.4 °F 1024.3 in Calm   1.6 mph 91 % 0.0 in
19:33 5.7 °F 4.3 °F 1024.3 in Calm   1.6 mph 91 % 0.0 in
19:39 5.7 °F 4.3 °F 1024.3 in NNW 1.4 mph 1.6 mph 91 % 0.0 in
19:45 5.7 °F 4.3 °F 1024.3 in Calm   1.6 mph 91 % 0.0 in
19:51 5.6 °F 4.4 °F 1024.3 in Calm   1.6 mph 92 % 0.0 in
19:57 5.5 °F 4.3 °F 1024.3 in Calm   1.6 mph 92 % 0.0 in
20:03 5.4 °F 4.2 °F 1024.3 in North 1.4 mph 1.6 mph 92 % 0.0 in
20:09 5.3 °F 4.1 °F 1024.6 in Calm   1.6 mph 92 % 0.0 in
20:15 5.2 °F 4.0 °F 1024.6 in Calm   1.6 mph 92 % 0.0 in
20:22 5.1 °F 4.1 °F 1024.6 in North 1.4 mph 1.6 mph 93 % 0.0 in
20:28 5.0 °F 4.0 °F 1024.6 in Calm     93 % 0.0 in
20:34 4.9 °F 3.9 °F 1024.6 in Calm     93 % 0.0 in
20:40 4.7 °F 3.7 °F 1024.6 in Calm     93 % 0.0 in
20:46 4.6 °F 3.7 °F 1024.6 in Calm   1.6 mph 94 % 0.0 in
20:52 4.4 °F 3.5 °F 1024.6 in Calm     94 % 0.0 in
20:58 4.2 °F 3.3 °F 1024.9 in Calm     94 % 0.0 in
21:04 3.9 °F 3.0 °F 1024.9 in Calm   3.2 mph 94 % 0.0 in
21:10 4.2 °F 3.5 °F 1024.9 in Calm   1.6 mph 95 % 0.0 in
21:16 4.3 °F 3.6 °F 1024.9 in Calm     95 % 0.0 in
21:22 4.3 °F 3.6 °F 1024.9 in Calm   1.6 mph 95 % 0.0 in
21:28 4.3 °F 3.6 °F 1024.9 in Calm     95 % 0.0 in
21:34 4.2 °F 3.5 °F 1024.9 in Calm     95 % 0.0 in
21:40 3.9 °F 3.0 °F 1024.9 in Calm     94 % 0.0 in
21:46 3.8 °F 3.1 °F 1024.9 in Calm     95 % 0.0 in
21:52 3.6 °F 2.7 °F 1024.9 in Calm     94 % 0.0 in
21:58 3.4 °F 2.7 °F 1024.9 in Calm     95 % 0.0 in
22:04 3.4 °F 2.7 °F 1024.9 in Calm     95 % 0.0 in
22:10 3.1 °F 2.4 °F 1024.9 in Calm     95 % 0.0 in
22:18 2.8 °F 2.1 °F 1025.3 in Calm     95 % 0.0 in
22:24 3.1 °F 2.5 °F 1025.3 in Calm   1.6 mph 96 % 0.0 in
22:30 3.3 °F 2.7 °F 1025.3 in Calm     96 % 0.0 in
22:36 3.4 °F 2.8 °F 1025.3 in Calm     96 % 0.0 in
22:42 3.3 °F 2.7 °F 1025.6 in Calm     96 % 0.0 in
22:48 3.2 °F 2.6 °F 1025.6 in Calm     96 % 0.0 in
22:54 3.1 °F 2.5 °F 1025.6 in Calm     96 % 0.0 in
23:00 3.1 °F 2.5 °F 1025.6 in Calm     96 % 0.0 in
23:06 3.0 °F 2.4 °F 1025.6 in Calm     96 % 0.0 in
23:12 3.1 °F 2.7 °F 1025.6 in Calm     97 % 0.0 in
23:18 3.4 °F 3.0 °F 1025.6 in Calm     97 % 0.0 in
23:24 3.2 °F 2.6 °F 1025.6 in Calm   1.6 mph 96 % 0.0 in
23:30 3.1 °F 2.5 °F 1025.6 in Calm   1.6 mph 96 % 0.0 in
23:36 3.1 °F 2.7 °F 1025.6 in Calm   1.6 mph 97 % 0.0 in
23:42 3.3 °F 2.9 °F 1025.6 in Calm   1.6 mph 97 % 0.0 in
23:48 3.1 °F 2.5 °F 1025.6 in Calm   1.6 mph 96 % 0.0 in
23:54 3.0 °F 2.4 °F 1025.6 in Calm   1.6 mph 96 % 0.0 in
Meteo18
Compliments of Weather Underground - 4 mb

Script developed by  Jim McMurry - jmcmurry@mwt.net Adapted for the template by  Wim van der Kuil - Leuven-Template.eu

You find our weather info also at:

European Weather Network

Weather Underground

Equipment we use:

Weather-station
Davis Vue

Weather-program
Meteobridge

Weather-server
Raspberry PI 2 B+

Provider
1 and 1

Davis Vue

Meteobridge

Raspberry PI 2 B+

1 and 1